Terminal Aerodrome Forecast
Issued by NWS Austin/San Antonio, TX

Home | Current Version | Previous Version | Text Only | Print | Product List | Glossary On
Versions: 1 2 3 4 5 6 7 8 9 10 11
308
FTUS44 KEWX 131126
TAFAUS
TAF
KAUS 131126Z 1312/1418 03006KT P6SM SCT015
     FM131700 14011KT P6SM BKN040
     FM140600 18010KT P6SM OVC015
     FM141700 19015KT P6SM SCT018 BKN040=

USA.gov is the U.S. government's official web portal to all federal, state and local government web resources and services.